createdAt,value
2023-12-21T00:01:02.763Z,99970.59
2023-12-21T00:03:34.852Z,99956.31
2023-12-21T00:06:13.649Z,99962.34
2023-12-21T00:08:45.766Z,99954.72
2023-12-21T00:11:18.329Z,99956.31
2023-12-21T00:13:59.024Z,99938.72
2023-12-21T00:16:32.584Z,99942.97
2023-12-21T00:19:01.550Z,99944.88
2023-12-21T00:21:31.781Z,99940.72
2023-12-21T00:24:06.007Z,99939.06
2023-12-21T00:26:41.245Z,99951.84
2023-12-21T00:29:17.129Z,99938.16
2023-12-21T00:31:51.395Z,99941.66
2023-12-21T00:34:26.001Z,99955.53
2023-12-21T00:36:58.953Z,99946.13
2023-12-21T00:39:33.248Z,99947.13
2023-12-21T00:42:04.701Z,99952.50
2023-12-21T00:44:38.180Z,99937.84
2023-12-21T00:47:14.106Z,99933.47
2023-12-21T00:49:52.729Z,99926.34
2023-12-21T00:52:25.597Z,99920.81
2023-12-21T00:54:55.322Z,99925.97
2023-12-21T00:57:27.255Z,99925.41
2023-12-21T00:59:58.801Z,99911.53
2023-12-21T01:02:39.200Z,99917.69
2023-12-21T01:05:08.742Z,99915.69
2023-12-21T01:07:38.489Z,99909.97
2023-12-21T01:10:13.899Z,99919.59
2023-12-21T01:12:49.132Z,99904.81
2023-12-21T01:15:23.896Z,99888.03
2023-12-21T01:17:58.644Z,99895.97
2023-12-21T01:20:27.711Z,99874.25
2023-12-21T01:23:02.723Z,99877.72
2023-12-21T01:25:31.051Z,99880.50
2023-12-21T01:28:05.427Z,99878.16
2023-12-21T01:30:40.118Z,99857.34
2023-12-21T01:33:16.541Z,99851.41
2023-12-21T01:35:51.549Z,99841.88
2023-12-21T01:38:26.494Z,99841.88
2023-12-21T01:40:53.348Z,99830.03
2023-12-21T01:43:20.150Z,99824.06
2023-12-21T01:45:49.736Z,99825.28
2023-12-21T01:48:19.614Z,99806.28
2023-12-21T01:50:51.957Z,99802.00
2023-12-21T01:53:21.859Z,99814.88
2023-12-21T01:55:57.121Z,99807.06
2023-12-21T01:58:30.086Z,99807.94
2023-12-21T02:01:00.476Z,99815.75
2023-12-21T02:03:35.452Z,99812.66
2023-12-21T02:06:08.511Z,99804.00
2023-12-21T02:08:41.258Z,99800.44
2023-12-21T02:11:09.280Z,99797.97
2023-12-21T02:13:38.958Z,99798.75
2023-12-21T02:16:19.178Z,99804.78
2023-12-21T02:18:51.418Z,99801.53
2023-12-21T02:21:23.094Z,99798.75
2023-12-21T02:24:00.200Z,99803.34
2023-12-21T02:26:30.118Z,99800.66
2023-12-21T02:29:04.786Z,99796.19
2023-12-21T02:31:37.349Z,99780.16
2023-12-21T02:34:07.695Z,99766.06
2023-12-21T02:36:39.973Z,99773.56
2023-12-21T02:39:11.551Z,99768.63
2023-12-21T02:41:43.661Z,99758.56
2023-12-21T02:44:18.597Z,99767.06
2023-12-21T02:46:48.704Z,99759.56
2023-12-21T02:49:22.621Z,99763.81
2023-12-21T02:51:57.617Z,99749.34
2023-12-21T02:54:27.559Z,99745.88
2023-12-21T02:57:01.925Z,99731.41
2023-12-21T02:59:33.814Z,99727.84
2023-12-21T03:02:03.187Z,99714.41
2023-12-21T03:04:38.305Z,99702.97
2023-12-21T03:07:12.650Z,99716.78
2023-12-21T03:09:42.064Z,99717.06
2023-12-21T03:12:14.056Z,99698.94
2023-12-21T03:14:40.802Z,99704.28
2023-12-21T03:17:10.684Z,99699.16
2023-12-21T03:19:45.908Z,99684.28
2023-12-21T03:22:12.859Z,99684.56
2023-12-21T03:24:44.335Z,99686.84
2023-12-21T03:27:12.485Z,99682.72
2023-12-21T03:29:47.375Z,99675.75
2023-12-21T03:32:27.189Z,99668.03
2023-12-21T03:34:56.425Z,99666.25
2023-12-21T03:37:30.640Z,99649.09
2023-12-21T03:40:03.212Z,99643.25
2023-12-21T03:42:39.498Z,99622.44
2023-12-21T03:45:11.378Z,99623.66
2023-12-21T03:47:41.173Z,99622.66
2023-12-21T03:50:14.337Z,99600.16
2023-12-21T03:52:43.789Z,99601.34
2023-12-21T03:55:12.069Z,99597.69
2023-12-21T03:57:45.859Z,99596.97
2023-12-21T04:00:21.775Z,99584.00
2023-12-21T04:02:52.645Z,99582.00
2023-12-21T04:05:20.509Z,99570.06
2023-12-21T04:07:53.677Z,99574.50
2023-12-21T04:10:25.605Z,99573.50
2023-12-21T04:12:58.162Z,99588.19
2023-12-21T04:15:31.313Z,99579.28
2023-12-21T04:18:03.358Z,99585.22
2023-12-21T04:20:37.755Z,99576.78
2023-12-21T04:23:12.810Z,99553.59
2023-12-21T04:25:42.203Z,99545.88
2023-12-21T04:28:16.507Z,99551.53
2023-12-21T04:30:57.230Z,99547.34
2023-12-21T04:33:32.102Z,99543.00
2023-12-21T04:36:03.639Z,99533.50
2023-12-21T04:38:38.112Z,99500.00
2023-12-21T04:41:07.265Z,99470.97
2023-12-21T04:43:39.820Z,99458.09
2023-12-21T04:46:07.038Z,99460.66
2023-12-21T04:48:40.361Z,99460.59
2023-12-21T04:51:10.361Z,99464.03
2023-12-21T04:53:42.243Z,99453.44
2023-12-21T04:56:14.514Z,99449.28
2023-12-21T04:58:49.881Z,99431.06
2023-12-21T05:01:19.161Z,99431.25
2023-12-21T05:03:51.599Z,99420.16
2023-12-21T05:06:18.570Z,99407.97
2023-12-21T05:08:53.086Z,99412.50
2023-12-21T05:11:25.625Z,99409.75
2023-12-21T05:13:52.310Z,99399.53
2023-12-21T05:16:29.947Z,99395.25
2023-12-21T05:18:59.633Z,99390.22
2023-12-21T05:21:31.329Z,99393.38
2023-12-21T05:24:03.582Z,99391.03
2023-12-21T05:26:35.486Z,99378.16
2023-12-21T05:29:08.112Z,99382.28
2023-12-21T05:31:43.172Z,99376.34
2023-12-21T05:34:14.869Z,99373.78
2023-12-21T05:36:47.436Z,99363.56
2023-12-21T05:39:18.113Z,99359.28
2023-12-21T05:41:50.375Z,99355.94
2023-12-21T05:44:23.418Z,99355.06
2023-12-21T05:46:55.432Z,99369.69
2023-12-21T05:49:23.539Z,99374.16
2023-12-21T05:52:00.539Z,99369.09
2023-12-21T05:54:34.359Z,99358.00
2023-12-21T05:57:09.760Z,99358.91
2023-12-21T05:59:38.545Z,99347.59
2023-12-21T06:02:16.582Z,99358.91
2023-12-21T06:04:54.478Z,99339.88
2023-12-21T06:07:27.908Z,99327.09
2023-12-21T06:10:00.445Z,99339.25
2023-12-21T06:12:34.914Z,99351.19
2023-12-21T06:15:10.585Z,99338.38
2023-12-21T06:17:49.355Z,99345.28
2023-12-21T06:20:24.585Z,99340.28
2023-12-21T06:22:54.351Z,99335.28
2023-12-21T06:25:26.998Z,99337.69
2023-12-21T06:27:59.494Z,99333.31
2023-12-21T06:30:34.636Z,99332.53
2023-12-21T06:33:09.954Z,99330.06
2023-12-21T06:35:37.495Z,99331.94
2023-12-21T06:38:13.225Z,99321.81
2023-12-21T06:40:50.428Z,99303.78
2023-12-21T06:43:20.865Z,99283.94
2023-12-21T06:45:53.137Z,99278.78
2023-12-21T06:48:34.281Z,99265.81
2023-12-21T06:51:03.647Z,99272.84
2023-12-21T06:53:35.844Z,99284.84
2023-12-21T06:56:23.783Z,99277.00
2023-12-21T06:59:03.491Z,99261.53
2023-12-21T07:01:36.740Z,99257.22
2023-12-21T07:04:08.551Z,99239.34
2023-12-21T07:06:39.087Z,99242.63
2023-12-21T07:09:10.612Z,99223.81
2023-12-21T07:11:42.212Z,99230.81
2023-12-21T07:14:16.597Z,99223.81
2023-12-21T07:16:46.289Z,99206.63
2023-12-21T07:19:16.020Z,99203.38
2023-12-21T07:21:45.954Z,99184.63
2023-12-21T07:24:15.398Z,99193.13
2023-12-21T07:26:42.126Z,99162.22
2023-12-21T07:29:11.080Z,99175.09
2023-12-21T07:31:40.897Z,99176.53
2023-12-21T07:34:15.841Z,99161.69
2023-12-21T07:36:42.696Z,99159.19
2023-12-21T07:39:19.056Z,99175.47
2023-12-21T07:41:51.605Z,99164.25
2023-12-21T07:44:23.573Z,99146.31
2023-12-21T07:46:57.480Z,99129.09
2023-12-21T07:49:27.024Z,99135.75
2023-12-21T07:51:59.357Z,99117.78
2023-12-21T07:54:26.151Z,99107.41
2023-12-21T07:56:52.785Z,99098.72
2023-12-21T07:59:25.266Z,99073.81
2023-12-21T08:01:57.602Z,99068.66
2023-12-21T08:04:29.489Z,99082.50
2023-12-21T08:06:58.229Z,99083.50
2023-12-21T08:09:25.733Z,99077.56
2023-12-21T08:12:03.354Z,99072.56
2023-12-21T08:14:37.096Z,99063.84
2023-12-21T08:17:15.205Z,99054.78
2023-12-21T08:19:48.136Z,99060.63
2023-12-21T08:22:17.858Z,99047.13
2023-12-21T08:24:52.493Z,99063.41
2023-12-21T08:27:23.544Z,99061.78
2023-12-21T08:29:52.941Z,99071.13
2023-12-21T08:32:22.010Z,99071.13
2023-12-21T08:34:50.923Z,99078.03
2023-12-21T08:37:23.500Z,99068.56
2023-12-21T08:39:57.927Z,99068.72
2023-12-21T08:42:29.830Z,99072.91
2023-12-21T08:44:59.540Z,99048.28
2023-12-21T08:47:29.039Z,99056.00
2023-12-21T08:50:05.133Z,99056.91
2023-12-21T08:52:42.959Z,99023.50
2023-12-21T08:55:10.688Z,99015.84
2023-12-21T08:57:43.134Z,99023.28
2023-12-21T09:00:15.592Z,99005.44
2023-12-21T09:02:45.844Z,99013.88
2023-12-21T09:05:15.472Z,99011.47
2023-12-21T09:07:42.768Z,99003.03
2023-12-21T09:10:12.716Z,98999.38
2023-12-21T09:12:43.686Z,98992.56
2023-12-21T09:15:12.740Z,98984.97
2023-12-21T09:17:39.639Z,98992.09
2023-12-21T09:20:09.896Z,98969.53
2023-12-21T09:22:43.371Z,98972.09
2023-12-21T09:25:17.448Z,98960.09
2023-12-21T09:27:54.932Z,98961.06
2023-12-21T09:30:25.410Z,98961.94
2023-12-21T09:32:55.812Z,98943.97
2023-12-21T09:35:22.972Z,98931.19
2023-12-21T09:37:53.977Z,98950.13
2023-12-21T09:40:22.598Z,98938.94
2023-12-21T09:43:05.204Z,98944.97
2023-12-21T09:45:44.925Z,98933.03
2023-12-21T09:48:13.012Z,98949.47
2023-12-21T09:50:48.323Z,98930.63
2023-12-21T09:53:23.756Z,98938.44
2023-12-21T09:56:00.857Z,98929.00
2023-12-21T09:58:30.751Z,98947.84
2023-12-21T10:01:09.479Z,98918.06
2023-12-21T10:03:38.620Z,98917.97
2023-12-21T10:06:08.830Z,98923.94
2023-12-21T10:08:38.775Z,98901.72
2023-12-21T10:11:11.162Z,98895.81
2023-12-21T10:13:49.098Z,98905.53
2023-12-21T10:16:22.487Z,98887.38
2023-12-21T10:18:51.883Z,98903.72
2023-12-21T10:21:26.979Z,98894.50
2023-12-21T10:23:59.380Z,98891.00
2023-12-21T10:26:34.203Z,98878.19
2023-12-21T10:29:06.791Z,98867.88
2023-12-21T10:31:38.788Z,98882.56
2023-12-21T10:34:08.123Z,98867.22
2023-12-21T10:36:41.097Z,98874.09
2023-12-21T10:39:22.668Z,98872.38
2023-12-21T10:42:00.555Z,98851.09
2023-12-21T10:44:27.343Z,98842.56
2023-12-21T10:47:02.422Z,98830.47
2023-12-21T10:49:31.824Z,98827.09
2023-12-21T10:52:05.700Z,98814.19
2023-12-21T10:54:41.787Z,98824.50
2023-12-21T10:57:14.151Z,98817.09
2023-12-21T10:59:44.849Z,98796.59
2023-12-21T11:02:14.929Z,98814.66
2023-12-21T11:04:45.476Z,98799.34
2023-12-21T11:07:20.038Z,98804.34
2023-12-21T11:09:49.500Z,98808.78
2023-12-21T11:12:19.052Z,98800.25
2023-12-21T11:14:53.737Z,98796.09
2023-12-21T11:17:23.179Z,98787.56
2023-12-21T11:19:51.793Z,98804.09
2023-12-21T11:22:24.059Z,98781.88
2023-12-21T11:25:14.072Z,98796.56
2023-12-21T11:27:46.898Z,98786.38
2023-12-21T11:30:16.979Z,98784.19
2023-12-21T11:32:50.874Z,98779.03
2023-12-21T11:35:28.366Z,98783.31
2023-12-21T11:38:02.255Z,98761.03
2023-12-21T11:40:31.020Z,98759.84
2023-12-21T11:43:06.767Z,98771.94
2023-12-21T11:45:42.722Z,98782.41
2023-12-21T11:48:18.501Z,98761.75
2023-12-21T11:50:50.512Z,98762.06
2023-12-21T11:53:33.075Z,98746.56
2023-12-21T11:56:23.205Z,98731.53
2023-12-21T11:58:53.337Z,98730.31
2023-12-21T12:01:28.672Z,98710.94
2023-12-21T12:03:59.354Z,98717.16
2023-12-21T12:06:30.690Z,98706.94
2023-12-21T12:08:57.822Z,98698.53
2023-12-21T12:11:28.155Z,98693.22
2023-12-21T12:13:59.772Z,98703.69
2023-12-21T12:16:30.079Z,98689.84
2023-12-21T12:19:08.635Z,98681.41
2023-12-21T12:21:38.738Z,98699.75
2023-12-21T12:24:08.826Z,98696.47
2023-12-21T12:26:35.761Z,98678.41
2023-12-21T12:29:10.253Z,98686.81
2023-12-21T12:31:40.589Z,98689.97
2023-12-21T12:34:13.491Z,98679.94
2023-12-21T12:36:43.550Z,98684.00
2023-12-21T12:39:13.269Z,98676.50
2023-12-21T12:41:49.766Z,98674.72
2023-12-21T12:44:23.079Z,98672.28
2023-12-21T12:46:58.505Z,98650.84
2023-12-21T12:49:34.617Z,98645.00
2023-12-21T12:52:08.270Z,98654.34
2023-12-21T12:54:43.838Z,98625.00
2023-12-21T12:57:14.044Z,98629.59
2023-12-21T12:59:48.831Z,98616.97
2023-12-21T13:02:21.174Z,98606.44
2023-12-21T13:04:51.945Z,98627.25
2023-12-21T13:07:25.711Z,98627.25
2023-12-21T13:10:09.051Z,98609.91
2023-12-21T13:12:46.094Z,98623.56
2023-12-21T13:15:16.959Z,98609.72
2023-12-21T13:17:49.520Z,98620.69
2023-12-21T13:20:28.585Z,98624.69
2023-12-21T13:22:58.275Z,98618.44
2023-12-21T13:25:28.291Z,98628.69
2023-12-21T13:28:11.109Z,98628.06
2023-12-21T13:30:46.882Z,98627.25
2023-12-21T13:33:17.350Z,98605.13
2023-12-21T13:35:49.988Z,98601.97
2023-12-21T13:38:20.646Z,98598.00
2023-12-21T13:40:55.056Z,98601.91
2023-12-21T13:43:27.788Z,98602.03
2023-12-21T13:46:01.406Z,98602.03
2023-12-21T13:48:29.027Z,98597.81
2023-12-21T13:50:56.323Z,98584.78
2023-12-21T13:53:25.893Z,98579.84
2023-12-21T13:55:55.572Z,98573.59
2023-12-21T13:58:28.310Z,98579.47
2023-12-21T14:01:04.043Z,98572.66
2023-12-21T14:03:39.629Z,98592.31
2023-12-21T14:06:12.536Z,98589.75
2023-12-21T14:08:43.893Z,98584.41
2023-12-21T14:11:13.997Z,98613.84
2023-12-21T14:13:40.811Z,98600.28
2023-12-21T14:16:11.099Z,98593.22
2023-12-21T14:18:42.344Z,98598.25
2023-12-21T14:21:17.890Z,98598.25
2023-12-21T14:23:50.031Z,98615.00
2023-12-21T14:26:24.819Z,98593.41
2023-12-21T14:28:57.798Z,98597.50
2023-12-21T14:31:30.652Z,98617.50
2023-12-21T14:34:03.050Z,98630.16
2023-12-21T14:36:35.010Z,98608.94
2023-12-21T14:39:07.185Z,98602.69
2023-12-21T14:41:38.585Z,98600.22
2023-12-21T14:44:11.040Z,98625.97
2023-12-21T14:46:51.132Z,98586.19
2023-12-21T14:49:32.287Z,98626.34
2023-12-21T14:52:05.361Z,98606.75
2023-12-21T14:54:38.837Z,98612.00
2023-12-21T14:57:19.509Z,98618.59
2023-12-21T14:59:49.403Z,98614.84
2023-12-21T15:02:23.015Z,98626.19
2023-12-21T15:04:49.810Z,98620.00
2023-12-21T15:07:25.638Z,98641.72
2023-12-21T15:10:02.570Z,98627.22
2023-12-21T15:12:34.954Z,98620.13
2023-12-21T15:15:12.796Z,98619.09
2023-12-21T15:17:42.439Z,98614.00
2023-12-21T15:20:12.505Z,98611.09
2023-12-21T15:22:46.097Z,98636.44
2023-12-21T15:25:17.905Z,98641.00
2023-12-21T15:27:50.661Z,98638.88
2023-12-21T15:30:26.404Z,98620.81
2023-12-21T15:32:56.397Z,98622.28
2023-12-21T15:35:29.159Z,98628.50
2023-12-21T15:37:58.740Z,98629.97
2023-12-21T15:40:28.908Z,98598.31
2023-12-21T15:42:55.590Z,98619.09
2023-12-21T15:45:25.585Z,98629.59
2023-12-21T15:47:53.166Z,98609.69
2023-12-21T15:50:25.300Z,98600.78
2023-12-21T15:52:57.129Z,98619.28
2023-12-21T15:55:28.104Z,98630.16
2023-12-21T15:57:58.062Z,98627.31
2023-12-21T16:00:36.997Z,98630.56
2023-12-21T16:03:09.538Z,98612.06
2023-12-21T16:05:40.199Z,98610.81
2023-12-21T16:08:12.795Z,98613.94
2023-12-21T16:10:48.966Z,98609.72
2023-12-21T16:13:17.386Z,98613.63
2023-12-21T16:15:49.906Z,98617.59
2023-12-21T16:18:27.816Z,98613.09
2023-12-21T16:20:57.428Z,98629.59
2023-12-21T16:23:32.229Z,98629.53
2023-12-21T16:26:13.823Z,98624.06
2023-12-21T16:28:47.374Z,98628.88
2023-12-21T16:31:21.548Z,98666.59
2023-12-21T16:33:53.319Z,98662.63
2023-12-21T16:36:21.975Z,98659.09
2023-12-21T16:38:52.720Z,98663.50
2023-12-21T16:41:27.666Z,98682.31
2023-12-21T16:43:59.526Z,98715.31
2023-12-21T16:46:34.288Z,98721.78
2023-12-21T16:49:05.112Z,98748.28
2023-12-21T16:51:39.707Z,98779.00
2023-12-21T16:54:08.653Z,98861.72
2023-12-21T16:56:37.724Z,98881.63
2023-12-21T16:59:09.181Z,98886.63
2023-12-21T17:01:42.085Z,98879.59
2023-12-21T17:04:11.792Z,98901.28
2023-12-21T17:06:46.845Z,98882.38
2023-12-21T17:09:22.104Z,98887.09
2023-12-21T17:11:53.961Z,98898.94
2023-12-21T17:14:20.770Z,98903.38
2023-12-21T17:16:52.686Z,98908.63
2023-12-21T17:19:27.786Z,98881.09
2023-12-21T17:22:04.202Z,98876.53
2023-12-21T17:24:31.766Z,98891.56
2023-12-21T17:27:03.500Z,98879.31
2023-12-21T17:29:35.663Z,98855.81
2023-12-21T17:32:06.661Z,98863.53
2023-12-21T17:34:41.739Z,98875.56
2023-12-21T17:37:08.825Z,98864.56
2023-12-21T17:39:35.579Z,98866.06
2023-12-21T17:42:08.174Z,98867.38
2023-12-21T17:44:40.209Z,98856.22
2023-12-21T17:47:13.217Z,98855.53
2023-12-21T17:49:41.399Z,98869.16
2023-12-21T17:52:15.252Z,98879.88
2023-12-21T17:54:48.102Z,98892.34
2023-12-21T17:57:25.722Z,98913.56
2023-12-21T17:59:58.474Z,98919.22
2023-12-21T18:02:30.654Z,98904.19
2023-12-21T18:05:04.948Z,98911.00
2023-12-21T18:07:43.364Z,98927.28
2023-12-21T18:10:18.147Z,98941.94
2023-12-21T18:12:56.688Z,98935.22
2023-12-21T18:15:34.263Z,98930.94
2023-12-21T18:18:12.882Z,98943.34
2023-12-21T18:20:45.838Z,98956.50
2023-12-21T18:23:21.329Z,98942.25
2023-12-21T18:26:02.170Z,98938.53
2023-12-21T18:28:38.145Z,98922.25
2023-12-21T18:31:09.593Z,98918.50
2023-12-21T18:33:37.823Z,98936.63
2023-12-21T18:36:08.592Z,98928.16
2023-12-21T18:38:39.358Z,98942.78
2023-12-21T18:41:09.077Z,98936.44
2023-12-21T18:43:42.271Z,98922.50
2023-12-21T18:46:16.785Z,98936.63
2023-12-21T18:48:52.852Z,98944.31
2023-12-21T18:51:31.417Z,98948.47
2023-12-21T18:54:00.801Z,98972.72
2023-12-21T18:56:30.820Z,98974.94
2023-12-21T18:59:00.697Z,98945.06
2023-12-21T19:01:34.255Z,98979.97
2023-12-21T19:04:05.486Z,98989.13
2023-12-21T19:06:37.503Z,98984.66
2023-12-21T19:09:13.613Z,98975.63
2023-12-21T19:11:43.625Z,98959.91
2023-12-21T19:14:16.284Z,98980.31
2023-12-21T19:16:55.617Z,98992.66
2023-12-21T19:19:27.936Z,99004.88
2023-12-21T19:21:57.699Z,99001.75
2023-12-21T19:24:42.463Z,99000.72
2023-12-21T19:27:12.382Z,99000.16
2023-12-21T19:29:45.682Z,98997.59
2023-12-21T19:32:21.201Z,98979.06
2023-12-21T19:34:50.726Z,98990.00
2023-12-21T19:37:19.479Z,99001.38
2023-12-21T19:39:55.240Z,98999.38
2023-12-21T19:42:31.680Z,99015.41
2023-12-21T19:45:08.541Z,99031.09
2023-12-21T19:47:41.562Z,99049.78
2023-12-21T19:50:18.057Z,99046.06
2023-12-21T19:53:03.072Z,99048.72
2023-12-21T19:55:34.380Z,99061.63
2023-12-21T19:58:07.218Z,99058.00
2023-12-21T20:00:41.458Z,99054.63
2023-12-21T20:03:14.753Z,99062.56
2023-12-21T20:05:47.856Z,99053.47
2023-12-21T20:08:28.345Z,99051.59
2023-12-21T20:10:59.700Z,99043.84
2023-12-21T20:13:40.287Z,99047.00
2023-12-21T20:16:15.442Z,99038.28
2023-12-21T20:18:47.739Z,99037.56
2023-12-21T20:21:35.973Z,99036.38
2023-12-21T20:24:13.246Z,99045.66
2023-12-21T20:26:45.517Z,99047.84
2023-12-21T20:29:16.379Z,99049.66
2023-12-21T20:31:50.856Z,99057.25
2023-12-21T20:34:44.283Z,99061.94
2023-12-21T20:37:16.797Z,99072.22
2023-12-21T20:39:47.291Z,99084.25
2023-12-21T20:42:25.366Z,99079.13
2023-12-21T20:44:55.191Z,99085.03
2023-12-21T20:47:35.717Z,99092.06
2023-12-21T20:50:11.865Z,99089.81
2023-12-21T20:52:51.185Z,99091.66
2023-12-21T20:55:27.479Z,99092.66
2023-12-21T20:58:00.336Z,99080.81
2023-12-21T21:00:39.651Z,99085.84
2023-12-21T21:03:15.727Z,99073.88
2023-12-21T21:05:51.549Z,99069.00
2023-12-21T21:08:25.292Z,99074.00
2023-12-21T21:10:56.832Z,99076.78
2023-12-21T21:13:39.278Z,99093.97
2023-12-21T21:16:15.441Z,99095.31
2023-12-21T21:18:49.942Z,99106.25
2023-12-21T21:21:19.321Z,99117.31
2023-12-21T21:23:52.360Z,99120.34
2023-12-21T21:26:21.865Z,99117.19
2023-12-21T21:28:53.987Z,99107.63
2023-12-21T21:31:22.857Z,99125.56
2023-12-21T21:33:51.958Z,99122.69
2023-12-21T21:36:20.993Z,99129.47
2023-12-21T21:38:53.039Z,99139.97
2023-12-21T21:41:24.466Z,99147.09
2023-12-21T21:43:56.905Z,99144.28
2023-12-21T21:46:26.445Z,99133.22
2023-12-21T21:48:55.580Z,99127.75
2023-12-21T21:51:25.202Z,99129.31
2023-12-21T21:53:58.194Z,99141.44
2023-12-21T21:56:30.539Z,99150.16
2023-12-21T21:59:02.076Z,99143.44
2023-12-21T22:01:34.496Z,99154.09
2023-12-21T22:04:09.653Z,99163.91
2023-12-21T22:06:42.348Z,99179.31
2023-12-21T22:09:11.994Z,99179.72
2023-12-21T22:11:45.251Z,99183.19
2023-12-21T22:14:20.373Z,99192.91
2023-12-21T22:16:52.613Z,99188.94
2023-12-21T22:19:27.020Z,99175.44
2023-12-21T22:21:58.207Z,99162.81
2023-12-21T22:24:28.030Z,99169.38
2023-12-21T22:26:57.385Z,99172.53
2023-12-21T22:29:23.989Z,99188.81
2023-12-21T22:31:58.354Z,99191.38
2023-12-21T22:34:33.313Z,99190.06
2023-12-21T22:37:07.205Z,99195.19
2023-12-21T22:39:39.201Z,99201.19
2023-12-21T22:42:14.649Z,99190.44
2023-12-21T22:44:44.438Z,99182.84
2023-12-21T22:47:15.318Z,99200.63
2023-12-21T22:49:47.766Z,99197.94
2023-12-21T22:52:22.590Z,99197.47
2023-12-21T22:54:59.987Z,99183.06
2023-12-21T22:57:33.404Z,99184.97
2023-12-21T23:00:06.418Z,99175.81
2023-12-21T23:02:38.728Z,99170.47
2023-12-21T23:05:09.378Z,99168.09
2023-12-21T23:07:43.898Z,99181.59
2023-12-21T23:10:16.268Z,99170.47
2023-12-21T23:12:48.758Z,99191.09
2023-12-21T23:15:22.674Z,99169.09
2023-12-21T23:17:55.129Z,99185.44
2023-12-21T23:20:24.589Z,99183.63
2023-12-21T23:23:00.019Z,99197.47
2023-12-21T23:25:32.352Z,99186.75
2023-12-21T23:27:59.157Z,99188.19
2023-12-21T23:30:25.929Z,99192.56
2023-12-21T23:32:58.024Z,99197.69
2023-12-21T23:35:25.486Z,99216.00
2023-12-21T23:37:55.838Z,99216.41
2023-12-21T23:40:26.772Z,99222.25
2023-12-21T23:43:07.341Z,99216.66
2023-12-21T23:45:42.375Z,99216.41
2023-12-21T23:48:11.648Z,99216.97
2023-12-21T23:50:46.889Z,99222.13
2023-12-21T23:53:21.899Z,99239.00
2023-12-21T23:55:54.562Z,99228.94
2023-12-21T23:58:27.313Z,99226.97
